sensor_id;sensor_type;location;lat;lon;timestamp;temperature;humidity
7290;DHT22;63176;52.678;13.250;2022-11-23T00:01:27;2.50;99.90
7290;DHT22;63176;52.678;13.250;2022-11-23T00:03:55;2.50;99.90
7290;DHT22;63176;52.678;13.250;2022-11-23T00:06:22;2.50;99.90
7290;DHT22;63176;52.678;13.250;2022-11-23T00:08:48;2.50;99.90
7290;DHT22;63176;52.678;13.250;2022-11-23T00:11:14;2.50;99.90
7290;DHT22;63176;52.678;13.250;2022-11-23T00:13:40;2.60;99.90
7290;DHT22;63176;52.678;13.250;2022-11-23T00:16:11;2.50;99.90
7290;DHT22;63176;52.678;13.250;2022-11-23T00:18:38;2.50;99.90
7290;DHT22;63176;52.678;13.250;2022-11-23T00:21:08;2.60;99.90
7290;DHT22;63176;52.678;13.250;2022-11-23T00:23:35;2.50;99.90
7290;DHT22;63176;52.678;13.250;2022-11-23T00:26:01;2.40;99.90
7290;DHT22;63176;52.678;13.250;2022-11-23T00:28:26;2.40;99.90
7290;DHT22;63176;52.678;13.250;2022-11-23T00:30:52;2.40;99.90
7290;DHT22;63176;52.678;13.250;2022-11-23T00:33:18;2.40;99.90
7290;DHT22;63176;52.678;13.250;2022-11-23T00:35:43;2.40;99.90
7290;DHT22;63176;52.678;13.250;2022-11-23T00:38:09;2.50;99.90
7290;DHT22;63176;52.678;13.250;2022-11-23T00:40:35;2.40;99.90
7290;DHT22;63176;52.678;13.250;2022-11-23T00:43:01;2.40;99.90
7290;DHT22;63176;52.678;13.250;2022-11-23T00:45:26;2.40;99.90
7290;DHT22;63176;52.678;13.250;2022-11-23T00:47:52;2.30;99.90
7290;DHT22;63176;52.678;13.250;2022-11-23T00:50:17;2.30;99.90
7290;DHT22;63176;52.678;13.250;2022-11-23T00:52:43;2.40;99.90
7290;DHT22;63176;52.678;13.250;2022-11-23T00:55:09;2.30;99.90
7290;DHT22;63176;52.678;13.250;2022-11-23T00:57:34;2.40;99.90
7290;DHT22;63176;52.678;13.250;2022-11-23T01:00:00;2.40;99.90
7290;DHT22;63176;52.678;13.250;2022-11-23T01:02:26;2.40;99.90
7290;DHT22;63176;52.678;13.250;2022-11-23T01:04:51;2.40;99.90
7290;DHT22;63176;52.678;13.250;2022-11-23T01:07:17;2.40;99.90
7290;DHT22;63176;52.678;13.250;2022-11-23T01:09:43;2.60;99.90
7290;DHT22;63176;52.678;13.250;2022-11-23T01:12:08;2.60;99.90
7290;DHT22;63176;52.678;13.250;2022-11-23T01:14:34;2.60;99.90
7290;DHT22;63176;52.678;13.250;2022-11-23T01:16:59;2.70;99.90
7290;DHT22;63176;52.678;13.250;2022-11-23T01:19:25;2.40;99.90
7290;DHT22;63176;52.678;13.250;2022-11-23T01:21:51;2.50;99.90
7290;DHT22;63176;52.678;13.250;2022-11-23T01:24:21;2.50;99.90
7290;DHT22;63176;52.678;13.250;2022-11-23T01:26:54;2.60;99.90
7290;DHT22;63176;52.678;13.250;2022-11-23T01:29:21;2.50;99.90
7290;DHT22;63176;52.678;13.250;2022-11-23T01:31:47;2.60;99.90
7290;DHT22;63176;52.678;13.250;2022-11-23T01:34:13;2.60;99.90
7290;DHT22;63176;52.678;13.250;2022-11-23T01:36:39;2.70;99.90
7290;DHT22;63176;52.678;13.250;2022-11-23T01:39:05;2.60;99.90
7290;DHT22;63176;52.678;13.250;2022-11-23T01:41:34;2.70;99.90
7290;DHT22;63176;52.678;13.250;2022-11-23T01:44:00;2.40;99.90
7290;DHT22;63176;52.678;13.250;2022-11-23T01:46:26;2.70;99.90
7290;DHT22;63176;52.678;13.250;2022-11-23T01:49:00;2.60;99.90
7290;DHT22;63176;52.678;13.250;2022-11-23T01:51:31;2.60;99.90
7290;DHT22;63176;52.678;13.250;2022-11-23T01:54:02;2.60;99.90
7290;DHT22;63176;52.678;13.250;2022-11-23T01:56:33;2.70;99.90
7290;DHT22;63176;52.678;13.250;2022-11-23T01:59:01;2.60;99.90
7290;DHT22;63176;52.678;13.250;2022-11-23T02:01:29;2.70;99.90
7290;DHT22;63176;52.678;13.250;2022-11-23T02:03:55;2.70;99.90
7290;DHT22;63176;52.678;13.250;2022-11-23T02:06:23;2.80;99.90
7290;DHT22;63176;52.678;13.250;2022-11-23T02:08:49;2.80;99.90
7290;DHT22;63176;52.678;13.250;2022-11-23T02:11:16;2.60;99.90
7290;DHT22;63176;52.678;13.250;2022-11-23T02:13:44;2.60;99.90
7290;DHT22;63176;52.678;13.250;2022-11-23T02:16:10;2.70;99.90
7290;DHT22;63176;52.678;13.250;2022-11-23T02:18:38;2.60;99.90
7290;DHT22;63176;52.678;13.250;2022-11-23T02:21:05;2.60;99.90
7290;DHT22;63176;52.678;13.250;2022-11-23T02:28:42;2.60;99.90
7290;DHT22;63176;52.678;13.250;2022-11-23T02:31:08;2.60;99.90
7290;DHT22;63176;52.678;13.250;2022-11-23T02:33:37;2.70;99.90
7290;DHT22;63176;52.678;13.250;2022-11-23T02:36:36;2.70;99.90
7290;DHT22;63176;52.678;13.250;2022-11-23T02:39:13;2.70;99.90
7290;DHT22;63176;52.678;13.250;2022-11-23T02:41:50;2.70;99.90
7290;DHT22;63176;52.678;13.250;2022-11-23T02:47:20;2.70;99.90
7290;DHT22;63176;52.678;13.250;2022-11-23T02:49:47;2.70;99.90
7290;DHT22;63176;52.678;13.250;2022-11-23T02:52:14;2.70;99.90
7290;DHT22;63176;52.678;13.250;2022-11-23T02:54:41;2.70;99.90
7290;DHT22;63176;52.678;13.250;2022-11-23T02:57:07;2.70;99.90
7290;DHT22;63176;52.678;13.250;2022-11-23T02:59:33;2.70;99.90
7290;DHT22;63176;52.678;13.250;2022-11-23T03:02:03;2.60;99.90
7290;DHT22;63176;52.678;13.250;2022-11-23T03:04:29;2.70;99.90
7290;DHT22;63176;52.678;13.250;2022-11-23T03:06:55;2.90;99.90
7290;DHT22;63176;52.678;13.250;2022-11-23T03:09:21;2.70;99.90
7290;DHT22;63176;52.678;13.250;2022-11-23T03:11:47;2.70;99.90
7290;DHT22;63176;52.678;13.250;2022-11-23T03:14:13;2.70;99.90
7290;DHT22;63176;52.678;13.250;2022-11-23T03:16:38;2.80;99.90
7290;DHT22;63176;52.678;13.250;2022-11-23T03:19:04;2.70;99.90
7290;DHT22;63176;52.678;13.250;2022-11-23T03:21:30;2.60;99.90
7290;DHT22;63176;52.678;13.250;2022-11-23T03:23:56;2.70;99.90
7290;DHT22;63176;52.678;13.250;2022-11-23T03:26:22;2.60;99.90
7290;DHT22;63176;52.678;13.250;2022-11-23T03:28:48;2.70;99.90
7290;DHT22;63176;52.678;13.250;2022-11-23T03:31:13;2.60;99.90
7290;DHT22;63176;52.678;13.250;2022-11-23T03:33:39;2.70;99.90
7290;DHT22;63176;52.678;13.250;2022-11-23T03:36:05;2.60;99.90
7290;DHT22;63176;52.678;13.250;2022-11-23T03:38:31;2.60;99.90
7290;DHT22;63176;52.678;13.250;2022-11-23T03:40:56;2.60;99.90
7290;DHT22;63176;52.678;13.250;2022-11-23T03:43:22;2.50;99.90
7290;DHT22;63176;52.678;13.250;2022-11-23T03:45:48;2.40;99.90
7290;DHT22;63176;52.678;13.250;2022-11-23T03:48:14;2.40;99.90
7290;DHT22;63176;52.678;13.250;2022-11-23T03:50:39;2.50;99.90
7290;DHT22;63176;52.678;13.250;2022-11-23T03:53:05;2.50;99.90
7290;DHT22;63176;52.678;13.250;2022-11-23T03:55:32;2.40;99.90
7290;DHT22;63176;52.678;13.250;2022-11-23T03:57:58;2.50;99.90
7290;DHT22;63176;52.678;13.250;2022-11-23T04:00:25;2.50;99.90
7290;DHT22;63176;52.678;13.250;2022-11-23T04:02:51;2.50;99.90
7290;DHT22;63176;52.678;13.250;2022-11-23T04:05:16;2.50;99.90
7290;DHT22;63176;52.678;13.250;2022-11-23T04:07:42;2.40;99.90
7290;DHT22;63176;52.678;13.250;2022-11-23T04:10:08;2.50;99.90
7290;DHT22;63176;52.678;13.250;2022-11-23T04:12:35;2.40;99.90
7290;DHT22;63176;52.678;13.250;2022-11-23T04:15:00;2.30;99.90
7290;DHT22;63176;52.678;13.250;2022-11-23T04:17:26;2.40;99.90
7290;DHT22;63176;52.678;13.250;2022-11-23T04:19:51;2.50;99.90
7290;DHT22;63176;52.678;13.250;2022-11-23T04:22:17;2.50;99.90
7290;DHT22;63176;52.678;13.250;2022-11-23T04:24:43;2.50;99.90
7290;DHT22;63176;52.678;13.250;2022-11-23T04:27:08;2.50;99.90
7290;DHT22;63176;52.678;13.250;2022-11-23T04:29:34;2.60;99.90
7290;DHT22;63176;52.678;13.250;2022-11-23T04:31:59;2.60;99.90
7290;DHT22;63176;52.678;13.250;2022-11-23T04:34:25;2.60;99.90
7290;DHT22;63176;52.678;13.250;2022-11-23T04:36:50;2.60;99.90
7290;DHT22;63176;52.678;13.250;2022-11-23T04:39:16;2.60;99.90
7290;DHT22;63176;52.678;13.250;2022-11-23T04:41:42;2.70;99.90
7290;DHT22;63176;52.678;13.250;2022-11-23T04:44:08;2.60;99.90
7290;DHT22;63176;52.678;13.250;2022-11-23T04:46:33;2.70;99.90
7290;DHT22;63176;52.678;13.250;2022-11-23T04:49:00;2.60;99.90
7290;DHT22;63176;52.678;13.250;2022-11-23T04:51:25;2.50;99.90
7290;DHT22;63176;52.678;13.250;2022-11-23T04:53:51;2.60;99.90
7290;DHT22;63176;52.678;13.250;2022-11-23T04:56:17;2.40;99.90
7290;DHT22;63176;52.678;13.250;2022-11-23T04:58:42;2.50;99.90
7290;DHT22;63176;52.678;13.250;2022-11-23T05:01:08;2.60;99.90
7290;DHT22;63176;52.678;13.250;2022-11-23T05:03:34;2.50;99.90
7290;DHT22;63176;52.678;13.250;2022-11-23T05:06:00;2.60;99.90
7290;DHT22;63176;52.678;13.250;2022-11-23T05:08:27;2.80;99.90
7290;DHT22;63176;52.678;13.250;2022-11-23T05:10:52;2.60;99.90
7290;DHT22;63176;52.678;13.250;2022-11-23T05:13:18;2.60;99.90
7290;DHT22;63176;52.678;13.250;2022-11-23T05:15:44;2.60;99.90
7290;DHT22;63176;52.678;13.250;2022-11-23T05:18:10;2.70;99.90
7290;DHT22;63176;52.678;13.250;2022-11-23T05:20:36;2.70;99.90
7290;DHT22;63176;52.678;13.250;2022-11-23T05:23:02;2.70;99.90
7290;DHT22;63176;52.678;13.250;2022-11-23T05:25:28;2.70;99.90
7290;DHT22;63176;52.678;13.250;2022-11-23T05:27:54;2.70;99.90
7290;DHT22;63176;52.678;13.250;2022-11-23T05:30:20;2.70;99.90
7290;DHT22;63176;52.678;13.250;2022-11-23T05:32:46;2.70;99.90
7290;DHT22;63176;52.678;13.250;2022-11-23T05:35:11;2.80;99.90
7290;DHT22;63176;52.678;13.250;2022-11-23T05:37:38;2.60;99.90
7290;DHT22;63176;52.678;13.250;2022-11-23T05:40:04;2.70;99.90
7290;DHT22;63176;52.678;13.250;2022-11-23T05:42:30;2.70;99.90
7290;DHT22;63176;52.678;13.250;2022-11-23T05:44:56;2.90;99.90
7290;DHT22;63176;52.678;13.250;2022-11-23T05:47:22;2.70;99.90
7290;DHT22;63176;52.678;13.250;2022-11-23T05:49:48;2.70;99.90
7290;DHT22;63176;52.678;13.250;2022-11-23T05:52:14;2.60;99.90
7290;DHT22;63176;52.678;13.250;2022-11-23T05:54:40;2.80;99.90
7290;DHT22;63176;52.678;13.250;2022-11-23T05:57:06;2.70;99.90
7290;DHT22;63176;52.678;13.250;2022-11-23T05:59:31;2.60;99.90
7290;DHT22;63176;52.678;13.250;2022-11-23T06:01:57;2.60;99.90
7290;DHT22;63176;52.678;13.250;2022-11-23T06:04:23;2.80;99.90
7290;DHT22;63176;52.678;13.250;2022-11-23T06:06:48;2.60;99.90
7290;DHT22;63176;52.678;13.250;2022-11-23T06:09:14;2.60;99.90
7290;DHT22;63176;52.678;13.250;2022-11-23T06:11:40;2.60;99.90
7290;DHT22;63176;52.678;13.250;2022-11-23T06:14:05;2.60;99.90
7290;DHT22;63176;52.678;13.250;2022-11-23T06:16:31;2.50;99.90
7290;DHT22;63176;52.678;13.250;2022-11-23T06:18:57;2.40;99.90
7290;DHT22;63176;52.678;13.250;2022-11-23T06:21:22;2.40;99.90
7290;DHT22;63176;52.678;13.250;2022-11-23T06:23:48;2.40;99.90
7290;DHT22;63176;52.678;13.250;2022-11-23T06:26:14;2.40;99.90
7290;DHT22;63176;52.678;13.250;2022-11-23T06:28:40;2.40;99.90
7290;DHT22;63176;52.678;13.250;2022-11-23T06:31:06;2.50;99.90
7290;DHT22;63176;52.678;13.250;2022-11-23T06:33:32;2.40;99.90
7290;DHT22;63176;52.678;13.250;2022-11-23T06:36:00;2.40;99.90
7290;DHT22;63176;52.678;13.250;2022-11-23T06:38:26;2.60;99.90
7290;DHT22;63176;52.678;13.250;2022-11-23T06:40:52;2.40;99.90
7290;DHT22;63176;52.678;13.250;2022-11-23T06:43:17;2.60;99.90
7290;DHT22;63176;52.678;13.250;2022-11-23T06:45:43;2.50;99.90
7290;DHT22;63176;52.678;13.250;2022-11-23T06:48:10;2.40;99.90
7290;DHT22;63176;52.678;13.250;2022-11-23T06:50:35;2.50;99.90
7290;DHT22;63176;52.678;13.250;2022-11-23T06:53:01;2.50;99.90
7290;DHT22;63176;52.678;13.250;2022-11-23T06:55:27;2.30;99.90
7290;DHT22;63176;52.678;13.250;2022-11-23T06:57:52;2.50;99.90
7290;DHT22;63176;52.678;13.250;2022-11-23T07:00:18;2.30;99.90
7290;DHT22;63176;52.678;13.250;2022-11-23T07:02:50;2.20;99.90
7290;DHT22;63176;52.678;13.250;2022-11-23T07:05:16;2.10;99.90
7290;DHT22;63176;52.678;13.250;2022-11-23T07:07:42;2.30;99.90
7290;DHT22;63176;52.678;13.250;2022-11-23T07:10:08;2.10;99.90
7290;DHT22;63176;52.678;13.250;2022-11-23T07:12:33;2.10;99.90
7290;DHT22;63176;52.678;13.250;2022-11-23T07:14:59;2.00;99.90
7290;DHT22;63176;52.678;13.250;2022-11-23T07:17:24;2.00;99.90
7290;DHT22;63176;52.678;13.250;2022-11-23T07:19:50;2.10;99.90
7290;DHT22;63176;52.678;13.250;2022-11-23T07:22:16;2.10;99.90
7290;DHT22;63176;52.678;13.250;2022-11-23T07:24:41;2.20;99.90
7290;DHT22;63176;52.678;13.250;2022-11-23T07:27:07;2.10;99.90
7290;DHT22;63176;52.678;13.250;2022-11-23T07:29:32;2.20;99.90
7290;DHT22;63176;52.678;13.250;2022-11-23T07:31:58;2.20;99.90
7290;DHT22;63176;52.678;13.250;2022-11-23T07:34:26;2.40;99.90
7290;DHT22;63176;52.678;13.250;2022-11-23T07:36:51;2.40;99.90
7290;DHT22;63176;52.678;13.250;2022-11-23T07:39:17;2.40;99.90
7290;DHT22;63176;52.678;13.250;2022-11-23T07:41:43;2.40;99.90
7290;DHT22;63176;52.678;13.250;2022-11-23T07:44:08;2.40;99.90
7290;DHT22;63176;52.678;13.250;2022-11-23T07:46:34;2.50;99.90
7290;DHT22;63176;52.678;13.250;2022-11-23T07:48:59;2.50;99.90
7290;DHT22;63176;52.678;13.250;2022-11-23T07:51:27;2.50;99.90
7290;DHT22;63176;52.678;13.250;2022-11-23T07:53:53;2.50;99.90
7290;DHT22;63176;52.678;13.250;2022-11-23T07:56:19;2.50;99.90
7290;DHT22;63176;52.678;13.250;2022-11-23T07:58:44;2.40;99.90
7290;DHT22;63176;52.678;13.250;2022-11-23T08:01:17;2.50;99.90
7290;DHT22;63176;52.678;13.250;2022-11-23T08:03:44;2.60;99.90
7290;DHT22;63176;52.678;13.250;2022-11-23T08:06:11;2.70;99.90
7290;DHT22;63176;52.678;13.250;2022-11-23T08:08:37;2.60;99.90
7290;DHT22;63176;52.678;13.250;2022-11-23T08:11:04;2.70;99.90
7290;DHT22;63176;52.678;13.250;2022-11-23T08:13:30;2.80;99.90
7290;DHT22;63176;52.678;13.250;2022-11-23T08:15:56;2.80;99.90
7290;DHT22;63176;52.678;13.250;2022-11-23T08:18:23;2.90;99.90
7290;DHT22;63176;52.678;13.250;2022-11-23T08:20:49;2.80;99.90
7290;DHT22;63176;52.678;13.250;2022-11-23T08:23:14;3.00;99.90
7290;DHT22;63176;52.678;13.250;2022-11-23T08:25:40;3.10;99.90
7290;DHT22;63176;52.678;13.250;2022-11-23T08:28:06;3.00;99.90
7290;DHT22;63176;52.678;13.250;2022-11-23T08:30:33;3.20;99.90
7290;DHT22;63176;52.678;13.250;2022-11-23T08:33:03;3.00;99.90
7290;DHT22;63176;52.678;13.250;2022-11-23T08:35:29;3.10;99.90
7290;DHT22;63176;52.678;13.250;2022-11-23T08:37:54;3.10;99.90
7290;DHT22;63176;52.678;13.250;2022-11-23T08:40:20;3.30;99.90
7290;DHT22;63176;52.678;13.250;2022-11-23T08:42:46;3.20;99.90
7290;DHT22;63176;52.678;13.250;2022-11-23T08:45:12;3.20;99.90
7290;DHT22;63176;52.678;13.250;2022-11-23T08:47:37;3.20;99.90
7290;DHT22;63176;52.678;13.250;2022-11-23T08:50:03;3.30;99.90
7290;DHT22;63176;52.678;13.250;2022-11-23T08:52:29;3.20;99.90
7290;DHT22;63176;52.678;13.250;2022-11-23T08:54:55;3.30;99.90
7290;DHT22;63176;52.678;13.250;2022-11-23T08:57:21;3.20;99.90
7290;DHT22;63176;52.678;13.250;2022-11-23T08:59:46;3.20;99.90
7290;DHT22;63176;52.678;13.250;2022-11-23T09:02:12;3.20;99.90
7290;DHT22;63176;52.678;13.250;2022-11-23T09:04:39;3.20;99.90
7290;DHT22;63176;52.678;13.250;2022-11-23T09:07:05;3.40;99.90
7290;DHT22;63176;52.678;13.250;2022-11-23T09:09:31;3.20;99.90
7290;DHT22;63176;52.678;13.250;2022-11-23T09:11:56;3.40;99.90
7290;DHT22;63176;52.678;13.250;2022-11-23T09:14:22;3.40;99.90
7290;DHT22;63176;52.678;13.250;2022-11-23T09:16:48;3.50;99.90
7290;DHT22;63176;52.678;13.250;2022-11-23T09:19:13;3.60;99.90
7290;DHT22;63176;52.678;13.250;2022-11-23T09:21:39;3.60;99.90
7290;DHT22;63176;52.678;13.250;2022-11-23T09:24:09;3.70;99.90
7290;DHT22;63176;52.678;13.250;2022-11-23T09:26:34;3.70;99.90
7290;DHT22;63176;52.678;13.250;2022-11-23T09:29:02;3.80;99.90
7290;DHT22;63176;52.678;13.250;2022-11-23T09:31:28;3.80;99.90
7290;DHT22;63176;52.678;13.250;2022-11-23T09:33:54;4.00;99.90
7290;DHT22;63176;52.678;13.250;2022-11-23T09:36:19;4.10;99.90
7290;DHT22;63176;52.678;13.250;2022-11-23T09:38:48;3.90;99.90
7290;DHT22;63176;52.678;13.250;2022-11-23T09:47:10;3.90;99.90
7290;DHT22;63176;52.678;13.250;2022-11-23T09:50:02;3.90;99.90
7290;DHT22;63176;52.678;13.250;2022-11-23T09:52:34;4.00;99.90
7290;DHT22;63176;52.678;13.250;2022-11-23T09:55:08;4.00;99.90
7290;DHT22;63176;52.678;13.250;2022-11-23T09:57:36;4.10;99.90
7290;DHT22;63176;52.678;13.250;2022-11-23T10:00:14;4.20;99.90
7290;DHT22;63176;52.678;13.250;2022-11-23T10:02:40;4.10;99.90
7290;DHT22;63176;52.678;13.250;2022-11-23T10:05:06;4.20;99.90
7290;DHT22;63176;52.678;13.250;2022-11-23T10:10:43;4.30;99.90
7290;DHT22;63176;52.678;13.250;2022-11-23T10:16:11;4.40;99.90
7290;DHT22;63176;52.678;13.250;2022-11-23T10:19:01;4.50;99.90
7290;DHT22;63176;52.678;13.250;2022-11-23T10:24:17;4.50;99.90
7290;DHT22;63176;52.678;13.250;2022-11-23T10:26:48;4.60;99.90
7290;DHT22;63176;52.678;13.250;2022-11-23T10:29:34;4.70;99.90
7290;DHT22;63176;52.678;13.250;2022-11-23T10:32:01;4.90;99.90
7290;DHT22;63176;52.678;13.250;2022-11-23T10:34:43;5.00;99.90
7290;DHT22;63176;52.678;13.250;2022-11-23T10:37:12;5.10;99.90
7290;DHT22;63176;52.678;13.250;2022-11-23T10:39:38;5.30;99.90
7290;DHT22;63176;52.678;13.250;2022-11-23T10:42:17;5.40;99.90
7290;DHT22;63176;52.678;13.250;2022-11-23T10:44:46;5.40;99.90
7290;DHT22;63176;52.678;13.250;2022-11-23T10:47:33;5.50;99.90
7290;DHT22;63176;52.678;13.250;2022-11-23T10:49:59;5.50;99.90
7290;DHT22;63176;52.678;13.250;2022-11-23T10:52:30;5.60;99.90
7290;DHT22;63176;52.678;13.250;2022-11-23T10:55:00;5.60;99.90
7290;DHT22;63176;52.678;13.250;2022-11-23T10:57:33;5.60;99.90
7290;DHT22;63176;52.678;13.250;2022-11-23T11:02:46;5.70;99.90
7290;DHT22;63176;52.678;13.250;2022-11-23T11:05:27;5.70;99.90
7290;DHT22;63176;52.678;13.250;2022-11-23T11:07:56;5.70;99.90
7290;DHT22;63176;52.678;13.250;2022-11-23T11:16:03;5.70;99.90
7290;DHT22;63176;52.678;13.250;2022-11-23T11:18:34;5.70;99.90
7290;DHT22;63176;52.678;13.250;2022-11-23T11:21:21;5.70;99.90
7290;DHT22;63176;52.678;13.250;2022-11-23T11:23:53;5.70;99.90
7290;DHT22;63176;52.678;13.250;2022-11-23T11:26:25;5.80;99.90
7290;DHT22;63176;52.678;13.250;2022-11-23T11:28:53;5.80;99.90
7290;DHT22;63176;52.678;13.250;2022-11-23T11:33:55;5.80;99.90
7290;DHT22;63176;52.678;13.250;2022-11-23T11:36:25;5.80;99.90
7290;DHT22;63176;52.678;13.250;2022-11-23T11:38:54;5.90;99.90
7290;DHT22;63176;52.678;13.250;2022-11-23T11:41:21;5.90;99.90
7290;DHT22;63176;52.678;13.250;2022-11-23T11:43:57;5.80;99.90
7290;DHT22;63176;52.678;13.250;2022-11-23T11:46:35;5.90;99.90
7290;DHT22;63176;52.678;13.250;2022-11-23T11:49:17;5.90;99.90
7290;DHT22;63176;52.678;13.250;2022-11-23T11:57:22;6.00;99.90
7290;DHT22;63176;52.678;13.250;2022-11-23T11:59:52;6.10;99.90
7290;DHT22;63176;52.678;13.250;2022-11-23T12:02:33;6.10;99.90
7290;DHT22;63176;52.678;13.250;2022-11-23T12:13:25;6.10;99.90
7290;DHT22;63176;52.678;13.250;2022-11-23T12:21:14;6.20;99.90
7290;DHT22;63176;52.678;13.250;2022-11-23T12:26:44;6.30;99.90
7290;DHT22;63176;52.678;13.250;2022-11-23T12:29:50;6.30;99.90
7290;DHT22;63176;52.678;13.250;2022-11-23T12:38:29;6.30;99.90
7290;DHT22;63176;52.678;13.250;2022-11-23T12:43:41;6.30;99.90
7290;DHT22;63176;52.678;13.250;2022-11-23T12:49:00;6.50;99.90
7290;DHT22;63176;52.678;13.250;2022-11-23T12:51:35;6.50;99.90
7290;DHT22;63176;52.678;13.250;2022-11-23T12:57:03;6.40;99.90
7290;DHT22;63176;52.678;13.250;2022-11-23T13:00:36;6.40;99.90
7290;DHT22;63176;52.678;13.250;2022-11-23T13:08:37;6.50;99.90
7290;DHT22;63176;52.678;13.250;2022-11-23T13:21:44;6.50;99.90
7290;DHT22;63176;52.678;13.250;2022-11-23T13:24:33;6.50;99.90
7290;DHT22;63176;52.678;13.250;2022-11-23T13:40:31;6.40;99.90
7290;DHT22;63176;52.678;13.250;2022-11-23T13:43:03;6.30;99.90
7290;DHT22;63176;52.678;13.250;2022-11-23T13:45:35;6.30;99.90
7290;DHT22;63176;52.678;13.250;2022-11-23T13:50:58;6.30;99.90
7290;DHT22;63176;52.678;13.250;2022-11-23T13:53:31;6.10;99.90
7290;DHT22;63176;52.678;13.250;2022-11-23T13:58:58;6.20;99.90
7290;DHT22;63176;52.678;13.250;2022-11-23T14:04:26;6.10;99.90
7290;DHT22;63176;52.678;13.250;2022-11-23T14:06:58;6.10;99.90
7290;DHT22;63176;52.678;13.250;2022-11-23T14:09:34;6.10;99.90
7290;DHT22;63176;52.678;13.250;2022-11-23T14:20:29;6.00;99.90
7290;DHT22;63176;52.678;13.250;2022-11-23T14:31:45;6.00;99.90
7290;DHT22;63176;52.678;13.250;2022-11-23T14:40:04;6.00;99.90
7290;DHT22;63176;52.678;13.250;2022-11-23T14:42:34;5.90;99.90
7290;DHT22;63176;52.678;13.250;2022-11-23T14:45:04;5.90;99.90
7290;DHT22;63176;52.678;13.250;2022-11-23T14:47:31;5.90;99.90
7290;DHT22;63176;52.678;13.250;2022-11-23T14:49:56;6.00;99.90
7290;DHT22;63176;52.678;13.250;2022-11-23T14:52:28;5.90;99.90
7290;DHT22;63176;52.678;13.250;2022-11-23T14:54:56;5.90;99.90
7290;DHT22;63176;52.678;13.250;2022-11-23T14:57:26;5.90;99.90
7290;DHT22;63176;52.678;13.250;2022-11-23T14:59:58;5.90;99.90
7290;DHT22;63176;52.678;13.250;2022-11-23T15:02:33;5.80;99.90
7290;DHT22;63176;52.678;13.250;2022-11-23T15:08:01;5.70;99.90
7290;DHT22;63176;52.678;13.250;2022-11-23T15:13:19;5.70;99.90
7290;DHT22;63176;52.678;13.250;2022-11-23T15:15:47;5.70;99.90
7290;DHT22;63176;52.678;13.250;2022-11-23T15:18:26;5.70;99.90
7290;DHT22;63176;52.678;13.250;2022-11-23T15:20:52;5.80;99.90
7290;DHT22;63176;52.678;13.250;2022-11-23T15:23:22;5.80;99.90
7290;DHT22;63176;52.678;13.250;2022-11-23T15:25:51;5.80;99.90
7290;DHT22;63176;52.678;13.250;2022-11-23T15:28:20;5.70;99.90
7290;DHT22;63176;52.678;13.250;2022-11-23T15:30:47;5.70;99.90
7290;DHT22;63176;52.678;13.250;2022-11-23T15:33:14;5.60;99.90
7290;DHT22;63176;52.678;13.250;2022-11-23T15:35:42;5.60;99.90
7290;DHT22;63176;52.678;13.250;2022-11-23T15:38:13;5.50;99.90
7290;DHT22;63176;52.678;13.250;2022-11-23T15:40:44;5.50;99.90
7290;DHT22;63176;52.678;13.250;2022-11-23T15:43:12;5.50;99.90
7290;DHT22;63176;52.678;13.250;2022-11-23T15:45:57;5.50;99.90
7290;DHT22;63176;52.678;13.250;2022-11-23T15:48:31;5.50;99.90
7290;DHT22;63176;52.678;13.250;2022-11-23T15:51:00;5.50;99.90
7290;DHT22;63176;52.678;13.250;2022-11-23T15:53:34;5.50;99.90
7290;DHT22;63176;52.678;13.250;2022-11-23T15:56:04;5.50;99.90
7290;DHT22;63176;52.678;13.250;2022-11-23T15:58:32;5.50;99.90
7290;DHT22;63176;52.678;13.250;2022-11-23T16:01:09;5.50;99.90
7290;DHT22;63176;52.678;13.250;2022-11-23T16:03:46;5.50;99.90
7290;DHT22;63176;52.678;13.250;2022-11-23T16:09:03;5.30;99.90
7290;DHT22;63176;52.678;13.250;2022-11-23T16:11:48;5.20;99.90
7290;DHT22;63176;52.678;13.250;2022-11-23T16:16:40;5.00;99.90
7290;DHT22;63176;52.678;13.250;2022-11-23T16:19:29;4.90;99.90
7290;DHT22;63176;52.678;13.250;2022-11-23T16:22:00;5.00;99.90
7290;DHT22;63176;52.678;13.250;2022-11-23T16:24:28;5.00;99.90
7290;DHT22;63176;52.678;13.250;2022-11-23T16:26:54;5.00;99.90
7290;DHT22;63176;52.678;13.250;2022-11-23T16:29:25;5.00;99.90
7290;DHT22;63176;52.678;13.250;2022-11-23T16:31:57;5.00;99.90
7290;DHT22;63176;52.678;13.250;2022-11-23T16:34:23;4.90;99.90
7290;DHT22;63176;52.678;13.250;2022-11-23T16:36:54;4.90;99.90
7290;DHT22;63176;52.678;13.250;2022-11-23T16:39:24;4.90;99.90
7290;DHT22;63176;52.678;13.250;2022-11-23T16:41:53;5.10;99.90
7290;DHT22;63176;52.678;13.250;2022-11-23T16:44:19;5.10;99.90
7290;DHT22;63176;52.678;13.250;2022-11-23T16:46:45;5.00;99.90
7290;DHT22;63176;52.678;13.250;2022-11-23T16:49:20;5.00;99.90
7290;DHT22;63176;52.678;13.250;2022-11-23T16:51:47;4.90;99.90
7290;DHT22;63176;52.678;13.250;2022-11-23T16:54:18;4.90;99.90
7290;DHT22;63176;52.678;13.250;2022-11-23T16:56:44;4.80;99.90
7290;DHT22;63176;52.678;13.250;2022-11-23T16:59:17;4.80;99.90
7290;DHT22;63176;52.678;13.250;2022-11-23T17:01:46;4.80;99.90
7290;DHT22;63176;52.678;13.250;2022-11-23T17:04:15;4.70;99.90
7290;DHT22;63176;52.678;13.250;2022-11-23T17:06:42;4.60;99.90
7290;DHT22;63176;52.678;13.250;2022-11-23T17:09:08;4.50;99.90
7290;DHT22;63176;52.678;13.250;2022-11-23T17:11:38;4.60;99.90
7290;DHT22;63176;52.678;13.250;2022-11-23T17:14:05;4.70;99.90
7290;DHT22;63176;52.678;13.250;2022-11-23T17:16:31;4.70;99.90
7290;DHT22;63176;52.678;13.250;2022-11-23T17:18:58;4.80;99.90
7290;DHT22;63176;52.678;13.250;2022-11-23T17:21:24;4.60;99.90
7290;DHT22;63176;52.678;13.250;2022-11-23T17:23:49;4.50;99.90
7290;DHT22;63176;52.678;13.250;2022-11-23T17:26:39;4.50;99.90
7290;DHT22;63176;52.678;13.250;2022-11-23T17:29:11;4.30;99.90
7290;DHT22;63176;52.678;13.250;2022-11-23T17:31:37;4.20;99.90
7290;DHT22;63176;52.678;13.250;2022-11-23T17:34:03;4.20;99.90
7290;DHT22;63176;52.678;13.250;2022-11-23T17:36:29;4.10;99.90
7290;DHT22;63176;52.678;13.250;2022-11-23T17:38:56;4.10;99.90
7290;DHT22;63176;52.678;13.250;2022-11-23T17:41:22;4.10;99.90
7290;DHT22;63176;52.678;13.250;2022-11-23T17:43:48;4.00;99.90
7290;DHT22;63176;52.678;13.250;2022-11-23T17:46:19;3.90;99.90
7290;DHT22;63176;52.678;13.250;2022-11-23T17:48:53;3.80;99.90
7290;DHT22;63176;52.678;13.250;2022-11-23T17:51:19;3.70;99.90
7290;DHT22;63176;52.678;13.250;2022-11-23T17:53:44;3.60;99.90
7290;DHT22;63176;52.678;13.250;2022-11-23T17:56:22;3.50;99.90
7290;DHT22;63176;52.678;13.250;2022-11-23T17:58:49;3.60;99.90
7290;DHT22;63176;52.678;13.250;2022-11-23T18:01:16;3.50;99.90
7290;DHT22;63176;52.678;13.250;2022-11-23T18:03:43;3.60;99.90
7290;DHT22;63176;52.678;13.250;2022-11-23T18:06:16;3.60;99.90
7290;DHT22;63176;52.678;13.250;2022-11-23T18:08:43;3.50;99.90
7290;DHT22;63176;52.678;13.250;2022-11-23T18:11:09;3.40;99.90
7290;DHT22;63176;52.678;13.250;2022-11-23T18:13:35;3.40;99.90
7290;DHT22;63176;52.678;13.250;2022-11-23T18:16:01;3.30;99.90